Time;durP1;ratioP1;P1;durP2;ratioP2;P2;SDS_P1;SDS_P2;PMS_P1;PMS_P2;Temp;Humidity;BMP_temperature;BMP_pressure;BME280_temperature;BME280_humidity;BME280_pressure;Samples;Min_cycle;Max_cycle;Signal;HPM_P1;HPM_P2
2023/07/06 00:01:25;;;;;;;7.25;2.83;;;;;;;;;;4950709;28;20043;-59
2023/07/06 00:03:54;;;;;;;4.88;2.65;;;;;;;;;;4968266;28;20400;-59
2023/07/06 00:06:20;;;;;;;4.85;2.40;;;;;;;;;;4969534;28;20060;-59
2023/07/06 00:08:46;;;;;;;5.13;2.55;;;;;;;;;;4968567;28;20049;-58
2023/07/06 00:11:12;;;;;;;4.90;2.78;;;;;;;;;;4967962;28;20053;-59
2023/07/06 00:13:39;;;;;;;4.07;2.35;;;;;;;;;;4967556;28;20386;-59
2023/07/06 00:16:06;;;;;;;5.13;2.53;;;;;;;;;;4967320;28;20416;-59
2023/07/06 00:18:33;;;;;;;4.00;2.45;;;;;;;;;;4965448;28;20042;-58
2023/07/06 00:21:00;;;;;;;5.47;2.63;;;;;;;;;;4965983;28;20034;-58
2023/07/06 00:23:26;;;;;;;9.05;3.00;;;;;;;;;;4968417;28;20030;-58
2023/07/06 00:25:53;;;;;;;7.10;2.55;;;;;;;;;;4965406;28;20043;-59
2023/07/06 00:28:24;;;;;;;4.22;2.10;;;;;;;;;;4963447;28;20039;-59
2023/07/06 00:33:21;;;;;;;3.58;2.08;;;;;;;;;;4950723;28;20038;-58
2023/07/06 00:35:48;;;;;;;5.18;2.45;;;;;;;;;;4966548;28;20400;-59
2023/07/06 00:38:17;;;;;;;5.97;2.40;;;;;;;;;;4967970;28;20043;-59
2023/07/06 00:40:46;;;;;;;5.03;2.50;;;;;;;;;;4965789;28;20043;-58
2023/07/06 00:43:18;;;;;;;6.45;2.60;;;;;;;;;;4967382;28;20041;-58
2023/07/06 00:45:46;;;;;;;7.65;3.17;;;;;;;;;;4976530;28;20039;-58
2023/07/06 00:48:20;;;;;;;5.40;2.50;;;;;;;;;;4967584;28;20030;-58
2023/07/06 00:50:52;;;;;;;5.95;2.80;;;;;;;;;;4965465;28;20038;-58
2023/07/06 00:53:19;;;;;;;5.68;2.50;;;;;;;;;;4967645;28;20046;-59
2023/07/06 00:55:47;;;;;;;3.35;2.10;;;;;;;;;;4947869;28;20107;-58
2023/07/06 00:58:36;;;;;;;4.53;2.35;;;;;;;;;;4966232;28;20078;-59
2023/07/06 01:01:07;;;;;;;4.22;2.20;;;;;;;;;;4974488;28;20027;-58
2023/07/06 01:03:43;;;;;;;6.47;2.95;;;;;;;;;;4969192;28;20050;-59
2023/07/06 01:06:15;;;;;;;4.00;2.55;;;;;;;;;;4969420;28;20046;-59
2023/07/06 01:08:42;;;;;;;3.28;2.15;;;;;;;;;;4971685;28;20046;-59
2023/07/06 01:11:09;;;;;;;4.90;2.70;;;;;;;;;;4968110;28;20034;-59
2023/07/06 01:13:36;;;;;;;8.48;3.00;;;;;;;;;;4967674;28;20481;-58
2023/07/06 01:16:32;;;;;;;7.60;2.38;;;;;;;;;;4969397;28;20041;-59
2023/07/06 01:18:58;;;;;;;4.55;2.45;;;;;;;;;;4980157;28;20035;-59
2023/07/06 01:21:53;;;;;;;7.00;3.00;;;;;;;;;;4970364;28;20035;-59
2023/07/06 01:24:45;;;;;;;5.40;2.83;;;;;;;;;;4957477;28;20046;-59
2023/07/06 01:28:09;;;;;;;6.40;2.92;;;;;;;;;;4970876;28;20841;-59
2023/07/06 01:30:46;;;;;;;6.93;2.72;;;;;;;;;;4910970;29;20048;-58
2023/07/06 01:33:22;;;;;;;5.78;3.42;;;;;;;;;;4930122;28;20046;-58
2023/07/06 01:36:04;;;;;;;5.40;2.78;;;;;;;;;;4970934;28;20046;-58
2023/07/06 01:38:31;;;;;;;3.75;2.30;;;;;;;;;;4970688;28;20531;-58
2023/07/06 01:40:59;;;;;;;7.75;2.75;;;;;;;;;;4972288;28;20508;-58
2023/07/06 01:43:27;;;;;;;4.85;2.95;;;;;;;;;;4977741;28;20507;-59
2023/07/06 01:45:53;;;;;;;6.57;2.63;;;;;;;;;;4969472;28;20051;-58
2023/07/06 01:48:20;;;;;;;4.18;2.58;;;;;;;;;;4977366;28;20034;-58
2023/07/06 01:51:15;;;;;;;6.18;2.80;;;;;;;;;;4971940;28;20043;-58
2023/07/06 01:54:22;;;;;;;4.97;2.42;;;;;;;;;;4969890;28;20515;-58
2023/07/06 01:56:59;;;;;;;5.07;2.35;;;;;;;;;;4942906;28;20047;-58
2023/07/06 01:59:29;;;;;;;4.53;2.45;;;;;;;;;;4967997;28;20424;-60
2023/07/06 02:02:00;;;;;;;5.40;2.72;;;;;;;;;;4964440;28;20035;-59
2023/07/06 02:04:31;;;;;;;6.00;3.00;;;;;;;;;;4967133;28;20041;-59
2023/07/06 02:07:03;;;;;;;6.05;2.85;;;;;;;;;;4974521;28;20046;-59
2023/07/06 02:09:29;;;;;;;5.05;2.55;;;;;;;;;;4971287;28;20034;-59
2023/07/06 02:11:55;;;;;;;5.82;3.13;;;;;;;;;;4969212;28;20035;-59
2023/07/06 02:14:21;;;;;;;8.05;2.63;;;;;;;;;;4969884;28;20062;-60
2023/07/06 02:16:51;;;;;;;4.63;2.55;;;;;;;;;;4968353;28;20047;-59
2023/07/06 02:19:23;;;;;;;7.57;3.08;;;;;;;;;;4974083;28;20054;-59
2023/07/06 02:21:50;;;;;;;4.68;2.85;;;;;;;;;;4968958;28;20539;-59
2023/07/06 02:24:17;;;;;;;6.93;2.72;;;;;;;;;;4951867;28;20050;-59
2023/07/06 02:26:45;;;;;;;4.88;2.88;;;;;;;;;;4969245;28;20035;-59
2023/07/06 02:29:12;;;;;;;5.65;2.80;;;;;;;;;;4971749;28;20042;-59
2023/07/06 02:31:38;;;;;;;6.57;2.90;;;;;;;;;;4969495;28;20493;-59
2023/07/06 02:34:04;;;;;;;8.73;3.17;;;;;;;;;;4966462;28;20721;-58
2023/07/06 02:36:30;;;;;;;8.90;3.72;;;;;;;;;;4969608;28;20037;-59
2023/07/06 02:38:57;;;;;;;5.32;2.60;;;;;;;;;;4968650;28;20046;-59
2023/07/06 02:41:23;;;;;;;5.47;2.80;;;;;;;;;;4968010;28;20042;-60
2023/07/06 02:43:49;;;;;;;6.95;2.92;;;;;;;;;;4968072;28;20397;-59
2023/07/06 02:46:19;;;;;;;5.82;2.97;;;;;;;;;;4971444;28;20034;-59
2023/07/06 02:48:46;;;;;;;7.10;3.30;;;;;;;;;;4971918;28;20042;-59
2023/07/06 02:51:13;;;;;;;4.63;2.70;;;;;;;;;;4967429;28;20035;-59
2023/07/06 02:53:39;;;;;;;5.88;2.90;;;;;;;;;;4967293;28;20035;-59
2023/07/06 02:56:05;;;;;;;5.95;2.80;;;;;;;;;;4967791;28;20046;-59
2023/07/06 02:58:31;;;;;;;7.20;3.35;;;;;;;;;;4969233;28;20042;-59
2023/07/06 03:00:57;;;;;;;4.88;3.28;;;;;;;;;;4969259;28;20042;-59
2023/07/06 03:03:26;;;;;;;4.97;2.83;;;;;;;;;;4966386;28;20057;-59
2023/07/06 03:05:53;;;;;;;7.15;3.50;;;;;;;;;;4970546;28;20504;-59
2023/07/06 03:08:19;;;;;;;6.50;3.33;;;;;;;;;;4952783;28;20051;-59
2023/07/06 03:10:46;;;;;;;7.38;3.20;;;;;;;;;;4970104;28;20030;-59
2023/07/06 03:13:13;;;;;;;7.22;3.13;;;;;;;;;;4967554;28;20053;-59
2023/07/06 03:15:43;;;;;;;4.97;3.33;;;;;;;;;;4970494;28;20050;-59
2023/07/06 03:18:09;;;;;;;6.95;2.90;;;;;;;;;;4971931;28;20045;-59
2023/07/06 03:20:36;;;;;;;5.05;2.92;;;;;;;;;;4949338;28;20053;-58
2023/07/06 03:23:02;;;;;;;4.03;2.63;;;;;;;;;;4951490;28;20041;-58
2023/07/06 03:25:29;;;;;;;5.28;3.10;;;;;;;;;;4968149;28;20034;-58
2023/07/06 03:27:56;;;;;;;5.00;2.63;;;;;;;;;;4968235;28;20098;-59
2023/07/06 03:30:26;;;;;;;7.68;3.47;;;;;;;;;;4972146;28;20053;-58
2023/07/06 03:32:54;;;;;;;6.40;3.20;;;;;;;;;;4970413;28;20122;-59
2023/07/06 03:35:23;;;;;;;4.75;3.05;;;;;;;;;;4965600;28;20047;-58
2023/07/06 03:37:50;;;;;;;5.43;3.13;;;;;;;;;;4972880;28;20496;-58
2023/07/06 03:40:16;;;;;;;5.10;3.45;;;;;;;;;;4969634;28;20034;-58
2023/07/06 03:42:45;;;;;;;11.02;4.30;;;;;;;;;;4951174;28;20440;-60
2023/07/06 03:45:13;;;;;;;9.02;4.10;;;;;;;;;;4971038;28;20054;-59
2023/07/06 03:47:42;;;;;;;6.82;4.00;;;;;;;;;;4970656;28;20054;-58
2023/07/06 03:50:10;;;;;;;5.70;3.42;;;;;;;;;;4967975;28;20508;-58
2023/07/06 03:52:40;;;;;;;6.10;3.40;;;;;;;;;;4971329;28;20433;-58
2023/07/06 03:55:12;;;;;;;7.35;3.25;;;;;;;;;;4969507;28;20516;-58
2023/07/06 03:57:40;;;;;;;5.32;3.40;;;;;;;;;;4970181;28;20041;-59
2023/07/06 04:00:13;;;;;;;7.30;3.72;;;;;;;;;;4967661;28;20400;-58
2023/07/06 04:02:40;;;;;;;9.85;4.40;;;;;;;;;;4966674;28;20050;-58
2023/07/06 04:05:08;;;;;;;6.68;2.80;;;;;;;;;;4967887;28;20054;-59
2023/07/06 04:07:35;;;;;;;5.18;3.00;;;;;;;;;;4966647;28;20043;-58
2023/07/06 04:10:01;;;;;;;7.03;3.60;;;;;;;;;;4968002;28;20062;-59
2023/07/06 04:12:28;;;;;;;6.45;3.08;;;;;;;;;;4966092;28;20548;-58
2023/07/06 04:14:56;;;;;;;5.32;3.13;;;;;;;;;;4968673;28;20046;-58
2023/07/06 04:17:22;;;;;;;6.00;3.20;;;;;;;;;;4970036;28;20432;-58
2023/07/06 04:19:50;;;;;;;8.98;3.35;;;;;;;;;;4967461;28;20404;-59
2023/07/06 04:22:17;;;;;;;8.13;3.67;;;;;;;;;;4967764;28;20694;-58
2023/07/06 04:24:43;;;;;;;12.82;3.83;;;;;;;;;;4968429;28;20031;-59
2023/07/06 04:27:09;;;;;;;6.40;3.50;;;;;;;;;;4966693;28;20027;-59
2023/07/06 04:29:37;;;;;;;5.25;3.30;;;;;;;;;;4968282;28;20038;-58
2023/07/06 04:32:04;;;;;;;7.07;3.00;;;;;;;;;;4967362;28;20046;-59
2023/07/06 04:34:30;;;;;;;5.93;3.42;;;;;;;;;;4968069;28;20027;-59
2023/07/06 04:36:57;;;;;;;10.60;4.43;;;;;;;;;;4968929;28;20026;-59
2023/07/06 04:39:23;;;;;;;9.60;4.00;;;;;;;;;;4964909;28;20042;-59
2023/07/06 04:41:49;;;;;;;9.70;3.78;;;;;;;;;;4966323;28;20094;-58
2023/07/06 04:44:16;;;;;;;7.70;3.60;;;;;;;;;;4967939;28;20027;-58
2023/07/06 04:46:42;;;;;;;9.13;3.58;;;;;;;;;;4968349;28;20038;-58
2023/07/06 04:49:08;;;;;;;5.65;3.28;;;;;;;;;;4969652;28;20035;-58
2023/07/06 04:51:37;;;;;;;10.10;4.78;;;;;;;;;;4965503;28;20039;-58
2023/07/06 04:54:04;;;;;;;10.02;4.68;;;;;;;;;;4970276;28;20039;-57
2023/07/06 04:56:30;;;;;;;6.75;3.75;;;;;;;;;;4969789;28;20046;-60
2023/07/06 04:58:56;;;;;;;7.00;3.67;;;;;;;;;;4967402;28;20053;-60
2023/07/06 05:01:24;;;;;;;8.20;3.70;;;;;;;;;;4971310;28;20046;-60
2023/07/06 05:03:52;;;;;;;7.45;4.13;;;;;;;;;;4962443;28;20057;-59
2023/07/06 05:06:19;;;;;;;8.15;4.00;;;;;;;;;;4971967;28;20034;-59
2023/07/06 05:08:47;;;;;;;7.07;4.03;;;;;;;;;;4982136;28;20405;-59
2023/07/06 05:11:13;;;;;;;7.43;3.65;;;;;;;;;;4962806;28;20039;-59
2023/07/06 05:13:39;;;;;;;9.70;3.95;;;;;;;;;;4966974;28;20042;-59
2023/07/06 05:16:05;;;;;;;9.90;4.85;;;;;;;;;;4968670;28;20511;-58
2023/07/06 05:18:31;;;;;;;8.43;3.75;;;;;;;;;;4968582;28;20038;-59
2023/07/06 05:20:58;;;;;;;7.93;4.30;;;;;;;;;;4965807;28;20050;-59
2023/07/06 05:23:28;;;;;;;7.82;4.03;;;;;;;;;;4969681;28;20038;-60
2023/07/06 05:26:00;;;;;;;6.85;3.97;;;;;;;;;;4968215;28;20038;-59
2023/07/06 05:28:29;;;;;;;11.15;3.83;;;;;;;;;;4967372;28;20031;-59
2023/07/06 05:30:55;;;;;;;7.80;4.32;;;;;;;;;;4968485;28;20042;-62
2023/07/06 05:33:21;;;;;;;12.75;4.53;;;;;;;;;;4971875;28;20385;-59
2023/07/06 05:35:47;;;;;;;13.07;4.47;;;;;;;;;;4969891;28;20724;-59
2023/07/06 05:38:14;;;;;;;13.52;4.00;;;;;;;;;;4968191;28;20066;-59
2023/07/06 05:40:41;;;;;;;8.70;3.50;;;;;;;;;;4967225;28;20417;-59
2023/07/06 05:43:09;;;;;;;9.00;3.97;;;;;;;;;;4972581;28;20061;-60
2023/07/06 05:45:35;;;;;;;8.25;3.35;;;;;;;;;;4971286;28;20046;-59
2023/07/06 05:48:02;;;;;;;9.68;3.75;;;;;;;;;;4969967;28;20050;-60
2023/07/06 05:50:29;;;;;;;10.07;4.82;;;;;;;;;;4968267;28;20546;-59
2023/07/06 05:52:55;;;;;;;10.73;5.07;;;;;;;;;;4976417;28;20039;-59
2023/07/06 05:55:21;;;;;;;11.10;4.45;;;;;;;;;;4973325;28;20420;-60
2023/07/06 05:57:47;;;;;;;10.55;4.72;;;;;;;;;;4966920;28;20038;-60
2023/07/06 06:00:15;;;;;;;11.13;5.30;;;;;;;;;;4969469;28;20046;-59
2023/07/06 06:02:44;;;;;;;9.98;5.18;;;;;;;;;;4969818;28;20041;-60
2023/07/06 06:05:14;;;;;;;10.98;5.32;;;;;;;;;;4971626;28;20067;-59
2023/07/06 06:07:43;;;;;;;12.95;5.75;;;;;;;;;;4972889;28;20038;-60
2023/07/06 06:10:10;;;;;;;;;;;;;;;;;;4978087;28;20041;-60
2023/07/06 06:12:36;;;;;;;14.57;4.93;;;;;;;;;;4961091;28;19919;-59
2023/07/06 06:15:03;;;;;;;11.13;5.93;;;;;;;;;;4967001;28;20061;-61
2023/07/06 06:17:30;;;;;;;14.48;6.03;;;;;;;;;;4969663;28;20046;-59
2023/07/06 06:19:57;;;;;;;12.45;4.72;;;;;;;;;;4969149;28;20496;-60
2023/07/06 06:22:24;;;;;;;12.27;5.63;;;;;;;;;;4971004;28;20043;-60
2023/07/06 06:24:51;;;;;;;9.57;4.65;;;;;;;;;;4975469;28;20043;-60
2023/07/06 06:27:19;;;;;;;12.90;5.10;;;;;;;;;;4972850;28;20030;-59
2023/07/06 06:29:46;;;;;;;13.70;5.47;;;;;;;;;;4972798;28;20023;-60
2023/07/06 06:32:13;;;;;;;12.25;5.25;;;;;;;;;;4971392;28;20039;-59
2023/07/06 06:34:41;;;;;;;12.07;5.72;;;;;;;;;;4976234;28;20034;-59
2023/07/06 06:37:09;;;;;;;11.05;5.15;;;;;;;;;;4971675;28;20412;-59
2023/07/06 06:39:36;;;;;;;14.15;5.38;;;;;;;;;;4967495;28;20050;-60
2023/07/06 06:42:02;;;;;;;11.35;5.35;;;;;;;;;;4966761;28;20038;-62
2023/07/06 06:44:29;;;;;;;12.35;5.20;;;;;;;;;;4968831;28;20039;-59
2023/07/06 06:46:58;;;;;;;12.73;5.20;;;;;;;;;;4969979;28;20054;-60
2023/07/06 06:49:25;;;;;;;12.93;5.88;;;;;;;;;;4971774;28;20049;-59
2023/07/06 06:51:51;;;;;;;15.27;6.03;;;;;;;;;;4969877;28;20556;-60
2023/07/06 06:54:18;;;;;;;9.95;4.80;;;;;;;;;;4975835;28;20051;-60
2023/07/06 06:56:44;;;;;;;15.52;6.15;;;;;;;;;;4969994;28;20050;-59
2023/07/06 06:59:11;;;;;;;12.90;5.70;;;;;;;;;;4970320;28;20042;-59
2023/07/06 07:01:40;;;;;;;13.98;5.10;;;;;;;;;;4969732;28;20424;-59
2023/07/06 07:04:09;;;;;;;11.75;5.63;;;;;;;;;;4971077;28;20381;-60
2023/07/06 07:06:38;;;;;;;12.18;4.85;;;;;;;;;;4969398;28;20038;-60
2023/07/06 07:09:09;;;;;;;8.43;4.57;;;;;;;;;;4974715;28;20045;-60
2023/07/06 07:11:36;;;;;;;11.98;5.07;;;;;;;;;;4968252;28;20439;-59
2023/07/06 07:14:02;;;;;;;11.52;5.20;;;;;;;;;;4976675;28;20090;-60
2023/07/06 07:16:29;;;;;;;9.90;4.60;;;;;;;;;;4973382;28;20423;-60
2023/07/06 07:18:55;;;;;;;12.85;5.57;;;;;;;;;;4973002;28;20054;-59
2023/07/06 07:21:21;;;;;;;9.48;5.07;;;;;;;;;;4971149;28;20046;-60
2023/07/06 07:23:48;;;;;;;10.38;5.22;;;;;;;;;;4970622;28;20046;-59
2023/07/06 07:26:22;;;;;;;14.82;5.22;;;;;;;;;;4964360;28;20535;-59
2023/07/06 07:28:48;;;;;;;13.60;5.53;;;;;;;;;;4969372;28;20051;-59
2023/07/06 07:31:17;;;;;;;10.57;5.20;;;;;;;;;;4974787;28;20038;-59
2023/07/06 07:33:46;;;;;;;11.05;4.97;;;;;;;;;;4971260;28;20045;-59
2023/07/06 07:36:16;;;;;;;11.27;5.18;;;;;;;;;;4970038;28;20047;-59
2023/07/06 07:38:44;;;;;;;13.93;5.32;;;;;;;;;;4967797;28;20038;-59
2023/07/06 07:41:12;;;;;;;13.55;5.22;;;;;;;;;;4972351;28;20933;-59
2023/07/06 07:43:42;;;;;;;13.68;5.35;;;;;;;;;;4967102;28;20038;-58
2023/07/06 07:46:11;;;;;;;15.65;5.85;;;;;;;;;;4968614;28;20038;-59
2023/07/06 07:48:40;;;;;;;10.02;5.22;;;;;;;;;;4970457;28;20047;-58
2023/07/06 07:51:08;;;;;;;13.82;5.25;;;;;;;;;;4968885;28;20389;-59
2023/07/06 07:53:37;;;;;;;12.90;5.20;;;;;;;;;;4968717;28;20046;-59
2023/07/06 07:56:07;;;;;;;9.57;4.75;;;;;;;;;;4969472;28;20050;-59
2023/07/06 07:58:35;;;;;;;13.90;5.05;;;;;;;;;;4972474;28;20034;-58
2023/07/06 08:01:04;;;;;;;9.73;4.45;;;;;;;;;;4967716;28;20492;-59
2023/07/06 08:03:30;;;;;;;10.00;4.72;;;;;;;;;;4967454;28;20031;-59
2023/07/06 08:06:05;;;;;;;10.75;5.45;;;;;;;;;;4969444;28;20035;-58
2023/07/06 08:08:33;;;;;;;13.90;5.03;;;;;;;;;;4972811;28;20039;-60
2023/07/06 08:11:03;;;;;;;9.93;4.68;;;;;;;;;;4969004;28;20058;-59
2023/07/06 08:13:31;;;;;;;12.40;4.43;;;;;;;;;;4968619;28;20045;-59
2023/07/06 08:15:58;;;;;;;16.38;4.75;;;;;;;;;;4969803;28;20030;-59
2023/07/06 08:18:25;;;;;;;9.48;4.22;;;;;;;;;;4974974;28;20141;-60
2023/07/06 08:20:54;;;;;;;11.77;4.55;;;;;;;;;;4970473;28;20034;-60
2023/07/06 08:23:23;;;;;;;15.30;4.43;;;;;;;;;;4968388;28;20039;-60
2023/07/06 08:25:52;;;;;;;10.27;4.28;;;;;;;;;;4964972;28;20039;-60
2023/07/06 08:28:46;;;;;;;11.15;4.40;;;;;;;;;;4971803;28;20500;-58
2023/07/06 08:31:14;;;;;;;8.68;3.97;;;;;;;;;;4969612;28;20464;-60
2023/07/06 08:33:41;;;;;;;10.50;4.30;;;;;;;;;;4967281;28;20046;-60
2023/07/06 08:36:08;;;;;;;9.32;4.07;;;;;;;;;;4970304;28;20050;-60
2023/07/06 08:38:37;;;;;;;10.95;4.70;;;;;;;;;;4972989;28;20054;-60
2023/07/06 08:41:12;;;;;;;13.52;5.07;;;;;;;;;;4964509;28;20085;-60
2023/07/06 08:43:39;;;;;;;8.55;3.95;;;;;;;;;;4969035;28;20039;-60
2023/07/06 08:46:06;;;;;;;12.15;4.75;;;;;;;;;;4972707;28;20026;-59
2023/07/06 08:48:36;;;;;;;10.50;4.50;;;;;;;;;;4972378;28;20051;-59
2023/07/06 08:51:09;;;;;;;;;;;;;;;;;;4968322;28;20046;-60
2023/07/06 08:53:36;;;;;;;10.45;4.75;;;;;;;;;;4970229;28;20378;-60
2023/07/06 08:56:08;;;;;;;10.80;4.80;;;;;;;;;;4968569;28;20038;-60
2023/07/06 08:58:41;;;;;;;9.52;3.92;;;;;;;;;;4972667;28;20548;-60
2023/07/06 09:01:18;;;;;;;10.43;4.15;;;;;;;;;;4969765;28;20510;-60
2023/07/06 09:03:46;;;;;;;11.55;4.50;;;;;;;;;;4962430;28;20167;-59
2023/07/06 09:06:18;;;;;;;11.25;4.63;;;;;;;;;;4972444;28;20515;-59
2023/07/06 09:08:46;;;;;;;7.15;3.80;;;;;;;;;;4970993;28;20049;-59
2023/07/06 09:11:14;;;;;;;8.45;4.32;;;;;;;;;;4967246;28;20030;-59
2023/07/06 09:13:49;;;;;;;9.32;4.53;;;;;;;;;;4975656;28;20111;-59
2023/07/06 09:16:19;;;;;;;10.55;4.13;;;;;;;;;;4970980;28;20031;-59
2023/07/06 09:18:47;;;;;;;8.48;4.38;;;;;;;;;;4972823;28;20699;-59
2023/07/06 09:21:16;;;;;;;9.90;5.22;;;;;;;;;;4969948;28;20042;-59
2023/07/06 09:23:47;;;;;;;9.73;4.70;;;;;;;;;;4973708;28;20042;-60
2023/07/06 09:26:23;;;;;;;11.82;4.13;;;;;;;;;;4972034;28;20039;-59
2023/07/06 09:28:51;;;;;;;10.75;4.88;;;;;;;;;;4971510;28;20054;-59
2023/07/06 09:31:20;;;;;;;10.82;4.40;;;;;;;;;;4970500;28;20404;-60
2023/07/06 09:33:48;;;;;;;12.82;4.70;;;;;;;;;;4966823;28;20047;-61
2023/07/06 09:36:19;;;;;;;10.90;4.20;;;;;;;;;;4977239;28;20046;-60
2023/07/06 09:38:46;;;;;;;9.45;4.65;;;;;;;;;;4971950;28;20045;-60
2023/07/06 09:41:20;;;;;;;11.70;4.72;;;;;;;;;;4968587;28;20070;-60
2023/07/06 09:43:46;;;;;;;7.90;4.35;;;;;;;;;;4964910;28;20042;-62
2023/07/06 09:46:14;;;;;;;12.13;4.10;;;;;;;;;;4980340;28;20049;-60
2023/07/06 09:48:42;;;;;;;6.07;3.92;;;;;;;;;;4977506;28;20034;-63
2023/07/06 09:51:24;;;;;;;6.82;3.83;;;;;;;;;;4965615;28;20104;-63
2023/07/06 09:53:56;;;;;;;8.07;4.72;;;;;;;;;;4973889;28;20045;-62
2023/07/06 09:56:23;;;;;;;7.70;4.40;;;;;;;;;;4974796;28;20030;-60
2023/07/06 09:58:51;;;;;;;6.97;3.80;;;;;;;;;;4982881;28;20055;-62
2023/07/06 10:01:25;;;;;;;8.77;4.72;;;;;;;;;;4969747;28;20420;-62
2023/07/06 10:04:04;;;;;;;7.50;4.18;;;;;;;;;;4977016;28;20038;-60
2023/07/06 10:06:31;;;;;;;8.05;4.40;;;;;;;;;;4972443;28;20034;-60
2023/07/06 10:09:05;;;;;;;7.78;4.00;;;;;;;;;;4970139;28;20524;-61
2023/07/06 10:11:56;;;;;;;11.25;4.60;;;;;;;;;;4970110;28;20042;-59
2023/07/06 10:14:41;;;;;;;8.45;4.10;;;;;;;;;;4975486;28;20035;-60
2023/07/06 10:17:25;;;;;;;6.97;3.80;;;;;;;;;;4983080;28;20507;-60
2023/07/06 10:20:03;;;;;;;6.95;4.07;;;;;;;;;;4976913;28;20043;-60
2023/07/06 10:22:35;;;;;;;8.90;4.03;;;;;;;;;;4970281;28;20035;-61
2023/07/06 10:25:18;;;;;;;9.88;4.82;;;;;;;;;;4975665;28;20050;-59
2023/07/06 10:27:53;;;;;;;9.57;4.47;;;;;;;;;;4982314;28;20038;-59
2023/07/06 10:30:30;;;;;;;7.70;3.80;;;;;;;;;;4974454;28;20050;-59
2023/07/06 10:32:59;;;;;;;8.13;3.80;;;;;;;;;;4976258;28;20050;-59
2023/07/06 10:35:28;;;;;;;;;;;;;;;;;;4975949;28;20049;-60
2023/07/06 10:37:54;;;;;;;7.70;4.03;;;;;;;;;;4979148;28;19929;-59
2023/07/06 10:40:26;;;;;;;7.20;4.18;;;;;;;;;;4985158;28;20065;-58
2023/07/06 10:43:13;;;;;;;7.70;3.72;;;;;;;;;;4975456;28;20412;-57
2023/07/06 10:45:44;;;;;;;9.43;4.25;;;;;;;;;;4976518;28;20037;-59
2023/07/06 10:48:14;;;;;;;8.23;4.10;;;;;;;;;;4978465;28;20070;-59
2023/07/06 10:51:12;;;;;;;8.05;4.35;;;;;;;;;;4978540;28;20034;-59
2023/07/06 10:53:41;;;;;;;8.07;4.20;;;;;;;;;;4969106;28;20055;-59
2023/07/06 10:56:17;;;;;;;7.78;4.25;;;;;;;;;;4979347;28;20050;-58
2023/07/06 10:58:57;;;;;;;7.13;4.30;;;;;;;;;;4980527;28;20058;-58
2023/07/06 11:01:32;;;;;;;8.10;4.10;;;;;;;;;;4978978;28;20035;-58
2023/07/06 11:04:00;;;;;;;7.80;4.13;;;;;;;;;;4971729;28;20047;-58
2023/07/06 11:06:42;;;;;;;8.32;4.45;;;;;;;;;;4982150;28;20069;-58
2023/07/06 11:09:13;;;;;;;7.32;4.28;;;;;;;;;;4973860;28;20400;-58
2023/07/06 11:11:54;;;;;;;6.78;3.65;;;;;;;;;;4972161;28;20054;-58
2023/07/06 11:14:34;;;;;;;11.07;7.07;;;;;;;;;;4977792;28;20043;-59
2023/07/06 11:17:10;;;;;;;11.90;6.60;;;;;;;;;;4978204;28;20054;-58
2023/07/06 11:19:42;;;;;;;8.02;4.72;;;;;;;;;;4977191;28;20038;-58
2023/07/06 11:22:16;;;;;;;11.85;4.43;;;;;;;;;;4973590;28;20381;-59
2023/07/06 11:24:48;;;;;;;7.70;4.78;;;;;;;;;;4976194;28;20047;-58
2023/07/06 11:27:30;;;;;;;10.63;4.65;;;;;;;;;;4965145;28;20404;-58
2023/07/06 11:30:28;;;;;;;8.45;4.80;;;;;;;;;;4973301;28;20420;-60
2023/07/06 11:33:20;;;;;;;7.05;4.47;;;;;;;;;;4971114;28;20033;-59
2023/07/06 11:36:06;;;;;;;10.52;4.85;;;;;;;;;;4969896;28;20045;-60
2023/07/06 11:38:39;;;;;;;8.88;4.40;;;;;;;;;;4976923;28;20047;-60
2023/07/06 11:41:30;;;;;;;8.50;4.68;;;;;;;;;;4976843;28;20507;-60
2023/07/06 11:44:44;;;;;;;10.23;6.10;;;;;;;;;;4972201;28;20042;-60
2023/07/06 11:47:27;;;;;;;7.95;5.20;;;;;;;;;;4912744;29;20055;-60
2023/07/06 11:49:59;;;;;;;8.60;4.55;;;;;;;;;;4972473;28;20051;-60
2023/07/06 11:52:35;;;;;;;7.22;4.53;;;;;;;;;;4977968;28;20039;-60
2023/07/06 11:55:28;;;;;;;7.53;4.13;;;;;;;;;;4952358;28;20504;-60
2023/07/06 11:58:05;;;;;;;8.05;4.03;;;;;;;;;;4949800;28;20046;-62
2023/07/06 12:00:37;;;;;;;8.00;4.57;;;;;;;;;;4973557;28;20412;-64
2023/07/06 12:03:08;;;;;;;8.52;4.70;;;;;;;;;;4971412;28;20038;-64
2023/07/06 12:05:56;;;;;;;13.10;4.57;;;;;;;;;;4972572;28;20049;-63
2023/07/06 12:08:35;;;;;;;8.00;4.40;;;;;;;;;;4972586;28;20440;-64
2023/07/06 12:11:07;;;;;;;7.63;4.80;;;;;;;;;;4972146;28;20058;-64
2023/07/06 12:13:45;;;;;;;9.32;4.22;;;;;;;;;;4954392;28;20488;-63
2023/07/06 12:16:28;;;;;;;5.93;3.88;;;;;;;;;;4972559;28;20041;-64
2023/07/06 12:19:03;;;;;;;4.78;3.42;;;;;;;;;;4971454;28;20046;-65
2023/07/06 12:21:30;;;;;;;6.05;3.90;;;;;;;;;;4967395;28;20047;-64
2023/07/06 12:23:58;;;;;;;6.32;3.88;;;;;;;;;;4975931;28;20034;-62
2023/07/06 12:26:29;;;;;;;6.65;4.35;;;;;;;;;;4972471;28;20046;-64
2023/07/06 12:29:00;;;;;;;6.75;3.97;;;;;;;;;;4973118;28;20039;-63
2023/07/06 12:31:27;;;;;;;5.53;3.40;;;;;;;;;;4975691;28;20042;-61
2023/07/06 12:33:56;;;;;;;6.87;3.63;;;;;;;;;;4970905;28;20031;-61
2023/07/06 12:36:29;;;;;;;8.15;3.60;;;;;;;;;;4975570;28;20041;-61
2023/07/06 12:39:00;;;;;;;6.13;3.65;;;;;;;;;;4975854;28;20034;-61
2023/07/06 12:41:31;;;;;;;6.32;3.53;;;;;;;;;;4972186;28;20061;-60
2023/07/06 12:43:59;;;;;;;6.25;3.55;;;;;;;;;;4967609;28;20026;-61
2023/07/06 12:46:30;;;;;;;9.13;3.60;;;;;;;;;;4976156;28;20039;-61
2023/07/06 12:49:00;;;;;;;7.38;3.83;;;;;;;;;;4974812;28;20050;-61
2023/07/06 12:51:28;;;;;;;8.38;3.85;;;;;;;;;;4969914;28;20411;-61
2023/07/06 12:53:57;;;;;;;5.63;3.33;;;;;;;;;;4975953;28;20039;-62
2023/07/06 12:56:29;;;;;;;6.72;3.92;;;;;;;;;;4972253;28;20030;-61
2023/07/06 12:58:58;;;;;;;8.18;3.80;;;;;;;;;;4974160;28;20441;-62
2023/07/06 13:01:33;;;;;;;8.68;3.90;;;;;;;;;;4976557;28;20058;-61
2023/07/06 13:04:07;;;;;;;7.68;3.42;;;;;;;;;;4978996;28;20058;-61
2023/07/06 13:06:42;;;;;;;6.70;3.88;;;;;;;;;;4979788;28;20046;-62
2023/07/06 13:09:14;;;;;;;8.27;3.80;;;;;;;;;;4980916;28;20038;-61
2023/07/06 13:11:46;;;;;;;8.35;3.92;;;;;;;;;;4974784;28;20050;-62
2023/07/06 13:14:17;;;;;;;6.10;3.58;;;;;;;;;;4976488;28;20046;-62
2023/07/06 13:16:50;;;;;;;5.80;3.97;;;;;;;;;;4981883;28;20038;-62
2023/07/06 13:19:16;;;;;;;7.35;4.28;;;;;;;;;;4978005;28;20031;-61
2023/07/06 13:21:43;;;;;;;7.20;4.00;;;;;;;;;;4977395;28;20400;-61
2023/07/06 13:24:14;;;;;;;6.00;3.95;;;;;;;;;;4980256;28;20042;-62
2023/07/06 13:26:40;;;;;;;5.82;3.70;;;;;;;;;;4977312;28;20050;-62
2023/07/06 13:29:11;;;;;;;6.93;4.10;;;;;;;;;;4987082;28;20045;-62
2023/07/06 13:31:39;;;;;;;7.65;4.32;;;;;;;;;;4971778;28;20389;-63
2023/07/06 13:34:05;;;;;;;6.25;3.95;;;;;;;;;;4968906;28;20039;-62
2023/07/06 13:36:32;;;;;;;6.82;4.25;;;;;;;;;;4974021;28;20031;-62
2023/07/06 13:38:58;;;;;;;7.47;4.10;;;;;;;;;;4971069;28;20403;-62
2023/07/06 13:41:28;;;;;;;6.15;3.88;;;;;;;;;;4973406;28;20500;-62
2023/07/06 13:43:55;;;;;;;8.02;4.32;;;;;;;;;;4976913;28;20054;-62
2023/07/06 13:46:22;;;;;;;7.20;4.18;;;;;;;;;;4979047;28;20049;-62
2023/07/06 13:48:49;;;;;;;5.63;3.50;;;;;;;;;;4984316;28;20039;-62
2023/07/06 13:51:16;;;;;;;6.35;3.67;;;;;;;;;;4974236;28;20038;-62
2023/07/06 13:53:43;;;;;;;6.57;3.78;;;;;;;;;;4975503;28;20046;-62
2023/07/06 13:56:13;;;;;;;5.63;3.53;;;;;;;;;;4965405;28;20496;-62
2023/07/06 13:58:41;;;;;;;5.78;4.03;;;;;;;;;;4970132;28;20038;-62
2023/07/06 14:01:10;;;;;;;6.60;3.70;;;;;;;;;;4972973;28;20051;-62
2023/07/06 14:03:37;;;;;;;6.00;3.70;;;;;;;;;;4980132;28;20054;-62
2023/07/06 14:06:03;;;;;;;6.28;3.80;;;;;;;;;;4975252;28;20035;-63
2023/07/06 14:08:29;;;;;;;6.18;4.10;;;;;;;;;;4975998;28;20035;-63
2023/07/06 14:10:56;;;;;;;7.35;3.88;;;;;;;;;;4979940;28;20050;-63
2023/07/06 14:13:23;;;;;;;7.63;4.00;;;;;;;;;;4979056;28;20053;-63
2023/07/06 14:15:51;;;;;;;6.60;3.72;;;;;;;;;;4976927;28;20031;-62
2023/07/06 14:18:17;;;;;;;7.60;4.35;;;;;;;;;;4977896;28;20045;-63
2023/07/06 14:20:47;;;;;;;8.10;4.15;;;;;;;;;;4977009;28;20049;-62
2023/07/06 14:23:15;;;;;;;8.23;3.75;;;;;;;;;;4977963;28;20034;-63
2023/07/06 14:25:42;;;;;;;;;;;;;;;;;;4979216;28;20058;-62
2023/07/06 14:28:10;;;;;;;7.25;4.05;;;;;;;;;;4976114;28;19913;-63
2023/07/06 14:30:37;;;;;;;7.43;3.92;;;;;;;;;;4972562;28;20030;-63
2023/07/06 14:33:08;;;;;;;9.18;4.55;;;;;;;;;;4976568;28;20046;-63
2023/07/06 14:35:35;;;;;;;10.73;4.40;;;;;;;;;;4979490;28;20500;-63
2023/07/06 14:38:03;;;;;;;7.97;4.95;;;;;;;;;;4980834;28;20057;-63
2023/07/06 14:40:29;;;;;;;8.15;4.50;;;;;;;;;;4978610;28;20039;-63
2023/07/06 14:42:56;;;;;;;8.65;4.85;;;;;;;;;;4976881;28;20049;-62
2023/07/06 14:45:23;;;;;;;7.55;4.70;;;;;;;;;;4979083;28;20056;-62
2023/07/06 14:47:50;;;;;;;8.13;4.63;;;;;;;;;;4976416;28;20403;-62
2023/07/06 14:50:17;;;;;;;8.77;4.47;;;;;;;;;;4974340;28;20059;-62
2023/07/06 14:52:45;;;;;;;8.05;4.68;;;;;;;;;;4982279;28;20065;-63
2023/07/06 14:55:12;;;;;;;10.10;4.32;;;;;;;;;;4980375;28;20046;-63
2023/07/06 14:57:38;;;;;;;6.13;4.15;;;;;;;;;;4977025;28;20035;-62
2023/07/06 15:00:10;;;;;;;6.72;4.32;;;;;;;;;;4978180;28;20042;-62
2023/07/06 15:02:36;;;;;;;7.13;4.32;;;;;;;;;;4977036;28;20428;-61